sensor_id;sensor_type;location;lat;lon;timestamp;P1;durP1;ratioP1;P2;durP2;ratioP2
13991;SDS011;7070;53.586;9.692;2022-10-17T00:00:41;0.50;;;0.50;;
13991;SDS011;7070;53.586;9.692;2022-10-17T00:03:08;0.40;;;0.40;;
13991;SDS011;7070;53.586;9.692;2022-10-17T00:05:37;0.50;;;0.50;;
13991;SDS011;7070;53.586;9.692;2022-10-17T00:08:05;0.50;;;0.50;;
13991;SDS011;7070;53.586;9.692;2022-10-17T00:10:32;0.50;;;0.50;;
13991;SDS011;7070;53.586;9.692;2022-10-17T00:13:01;0.50;;;0.50;;
13991;SDS011;7070;53.586;9.692;2022-10-17T00:15:27;0.50;;;0.50;;
13991;SDS011;7070;53.586;9.692;2022-10-17T00:17:54;0.40;;;0.40;;
13991;SDS011;7070;53.586;9.692;2022-10-17T00:20:21;0.50;;;0.50;;
13991;SDS011;7070;53.586;9.692;2022-10-17T00:22:48;0.50;;;0.50;;
13991;SDS011;7070;53.586;9.692;2022-10-17T00:25:15;0.50;;;0.50;;
13991;SDS011;7070;53.586;9.692;2022-10-17T00:27:42;0.40;;;0.40;;
13991;SDS011;7070;53.586;9.692;2022-10-17T00:30:11;0.50;;;0.50;;
13991;SDS011;7070;53.586;9.692;2022-10-17T00:32:39;0.50;;;0.50;;
13991;SDS011;7070;53.586;9.692;2022-10-17T00:35:06;0.47;;;0.47;;
13991;SDS011;7070;53.586;9.692;2022-10-17T00:37:34;0.40;;;0.40;;
13991;SDS011;7070;53.586;9.692;2022-10-17T00:40:00;0.50;;;0.50;;
13991;SDS011;7070;53.586;9.692;2022-10-17T00:42:28;0.40;;;0.40;;
13991;SDS011;7070;53.586;9.692;2022-10-17T00:47:47;0.40;;;0.40;;
13991;SDS011;7070;53.586;9.692;2022-10-17T00:50:16;0.40;;;0.40;;
13991;SDS011;7070;53.586;9.692;2022-10-17T00:52:44;0.50;;;0.50;;
13991;SDS011;7070;53.586;9.692;2022-10-17T00:55:13;0.50;;;0.50;;
13991;SDS011;7070;53.586;9.692;2022-10-17T00:57:43;0.50;;;0.50;;
13991;SDS011;7070;53.586;9.692;2022-10-17T01:00:11;0.50;;;0.50;;
13991;SDS011;7070;53.586;9.692;2022-10-17T01:02:40;0.60;;;0.60;;
13991;SDS011;7070;53.586;9.692;2022-10-17T01:05:08;0.40;;;0.40;;
13991;SDS011;7070;53.586;9.692;2022-10-17T01:07:35;0.57;;;0.57;;
13991;SDS011;7070;53.586;9.692;2022-10-17T01:10:04;0.50;;;0.50;;
13991;SDS011;7070;53.586;9.692;2022-10-17T01:12:35;0.50;;;0.50;;
13991;SDS011;7070;53.586;9.692;2022-10-17T01:15:08;0.60;;;0.60;;
13991;SDS011;7070;53.586;9.692;2022-10-17T01:17:48;0.50;;;0.50;;
13991;SDS011;7070;53.586;9.692;2022-10-17T01:20:33;0.50;;;0.50;;
13991;SDS011;7070;53.586;9.692;2022-10-17T01:23:23;0.50;;;0.50;;
13991;SDS011;7070;53.586;9.692;2022-10-17T01:26:00;0.50;;;0.50;;
13991;SDS011;7070;53.586;9.692;2022-10-17T01:28:39;0.50;;;0.50;;
13991;SDS011;7070;53.586;9.692;2022-10-17T01:31:23;0.40;;;0.40;;
13991;SDS011;7070;53.586;9.692;2022-10-17T01:33:58;0.50;;;0.50;;
13991;SDS011;7070;53.586;9.692;2022-10-17T01:36:32;0.47;;;0.47;;
13991;SDS011;7070;53.586;9.692;2022-10-17T01:39:05;0.40;;;0.40;;
13991;SDS011;7070;53.586;9.692;2022-10-17T01:41:40;0.40;;;0.40;;
13991;SDS011;7070;53.586;9.692;2022-10-17T01:44:12;0.43;;;0.43;;
13991;SDS011;7070;53.586;9.692;2022-10-17T01:46:44;0.40;;;0.40;;
13991;SDS011;7070;53.586;9.692;2022-10-17T01:49:15;0.40;;;0.40;;
13991;SDS011;7070;53.586;9.692;2022-10-17T01:51:46;0.50;;;0.50;;
13991;SDS011;7070;53.586;9.692;2022-10-17T01:54:17;0.50;;;0.50;;
13991;SDS011;7070;53.586;9.692;2022-10-17T01:56:48;0.47;;;0.47;;
13991;SDS011;7070;53.586;9.692;2022-10-17T01:59:21;0.40;;;0.40;;
13991;SDS011;7070;53.586;9.692;2022-10-17T02:01:52;0.50;;;0.50;;
13991;SDS011;7070;53.586;9.692;2022-10-17T02:04:20;0.40;;;0.40;;
13991;SDS011;7070;53.586;9.692;2022-10-17T02:06:48;0.50;;;0.50;;
13991;SDS011;7070;53.586;9.692;2022-10-17T02:09:15;0.50;;;0.50;;
13991;SDS011;7070;53.586;9.692;2022-10-17T02:11:44;0.40;;;0.40;;
13991;SDS011;7070;53.586;9.692;2022-10-17T02:14:22;0.30;;;0.30;;
13991;SDS011;7070;53.586;9.692;2022-10-17T02:17:00;0.40;;;0.40;;
13991;SDS011;7070;53.586;9.692;2022-10-17T02:19:33;0.50;;;0.50;;
13991;SDS011;7070;53.586;9.692;2022-10-17T02:22:16;0.40;;;0.40;;
13991;SDS011;7070;53.586;9.692;2022-10-17T02:24:50;0.40;;;0.40;;
13991;SDS011;7070;53.586;9.692;2022-10-17T02:27:25;0.40;;;0.40;;
13991;SDS011;7070;53.586;9.692;2022-10-17T02:30:01;0.50;;;0.50;;
13991;SDS011;7070;53.586;9.692;2022-10-17T02:32:35;0.40;;;0.40;;
13991;SDS011;7070;53.586;9.692;2022-10-17T02:35:09;0.50;;;0.50;;
13991;SDS011;7070;53.586;9.692;2022-10-17T02:37:39;0.40;;;0.40;;
13991;SDS011;7070;53.586;9.692;2022-10-17T02:40:08;0.50;;;0.50;;
13991;SDS011;7070;53.586;9.692;2022-10-17T02:42:38;0.30;;;0.30;;
13991;SDS011;7070;53.586;9.692;2022-10-17T02:45:09;0.50;;;0.50;;
13991;SDS011;7070;53.586;9.692;2022-10-17T02:47:40;0.40;;;0.40;;
13991;SDS011;7070;53.586;9.692;2022-10-17T02:50:14;0.50;;;0.50;;
13991;SDS011;7070;53.586;9.692;2022-10-17T02:52:43;0.43;;;0.43;;
13991;SDS011;7070;53.586;9.692;2022-10-17T02:55:15;0.50;;;0.50;;
13991;SDS011;7070;53.586;9.692;2022-10-17T02:57:43;0.40;;;0.40;;
13991;SDS011;7070;53.586;9.692;2022-10-17T03:00:14;0.50;;;0.50;;
13991;SDS011;7070;53.586;9.692;2022-10-17T03:02:45;0.40;;;0.40;;
13991;SDS011;7070;53.586;9.692;2022-10-17T03:05:14;0.30;;;0.30;;
13991;SDS011;7070;53.586;9.692;2022-10-17T03:07:42;0.40;;;0.40;;
13991;SDS011;7070;53.586;9.692;2022-10-17T03:10:09;0.40;;;0.40;;
13991;SDS011;7070;53.586;9.692;2022-10-17T03:12:36;0.40;;;0.40;;
13991;SDS011;7070;53.586;9.692;2022-10-17T03:15:03;0.40;;;0.40;;
13991;SDS011;7070;53.586;9.692;2022-10-17T03:17:31;0.40;;;0.40;;
13991;SDS011;7070;53.586;9.692;2022-10-17T03:19:59;0.40;;;0.40;;
13991;SDS011;7070;53.586;9.692;2022-10-17T03:22:26;0.40;;;0.40;;
13991;SDS011;7070;53.586;9.692;2022-10-17T03:24:53;0.40;;;0.40;;
13991;SDS011;7070;53.586;9.692;2022-10-17T03:27:20;0.40;;;0.40;;
13991;SDS011;7070;53.586;9.692;2022-10-17T03:29:46;0.40;;;0.40;;
13991;SDS011;7070;53.586;9.692;2022-10-17T03:32:13;0.40;;;0.40;;
13991;SDS011;7070;53.586;9.692;2022-10-17T03:34:40;0.40;;;0.40;;
13991;SDS011;7070;53.586;9.692;2022-10-17T03:37:08;0.40;;;0.40;;
13991;SDS011;7070;53.586;9.692;2022-10-17T03:39:35;0.40;;;0.40;;
13991;SDS011;7070;53.586;9.692;2022-10-17T03:42:01;0.30;;;0.30;;
13991;SDS011;7070;53.586;9.692;2022-10-17T03:44:28;0.40;;;0.40;;
13991;SDS011;7070;53.586;9.692;2022-10-17T03:46:55;0.40;;;0.40;;
13991;SDS011;7070;53.586;9.692;2022-10-17T03:49:22;0.40;;;0.40;;
13991;SDS011;7070;53.586;9.692;2022-10-17T03:51:49;0.40;;;0.40;;
13991;SDS011;7070;53.586;9.692;2022-10-17T03:54:17;0.40;;;0.40;;
13991;SDS011;7070;53.586;9.692;2022-10-17T03:56:44;0.30;;;0.30;;
13991;SDS011;7070;53.586;9.692;2022-10-17T03:59:11;0.50;;;0.50;;
13991;SDS011;7070;53.586;9.692;2022-10-17T04:01:39;0.40;;;0.40;;
13991;SDS011;7070;53.586;9.692;2022-10-17T04:04:06;0.50;;;0.50;;
13991;SDS011;7070;53.586;9.692;2022-10-17T04:06:33;0.40;;;0.40;;
13991;SDS011;7070;53.586;9.692;2022-10-17T04:09:00;0.40;;;0.40;;
13991;SDS011;7070;53.586;9.692;2022-10-17T04:11:29;0.40;;;0.40;;
13991;SDS011;7070;53.586;9.692;2022-10-17T04:13:57;0.40;;;0.40;;
13991;SDS011;7070;53.586;9.692;2022-10-17T04:16:25;0.40;;;0.40;;
13991;SDS011;7070;53.586;9.692;2022-10-17T04:18:52;0.40;;;0.40;;
13991;SDS011;7070;53.586;9.692;2022-10-17T04:21:20;0.50;;;0.50;;
13991;SDS011;7070;53.586;9.692;2022-10-17T04:23:51;0.40;;;0.40;;
13991;SDS011;7070;53.586;9.692;2022-10-17T04:26:18;0.40;;;0.40;;
13991;SDS011;7070;53.586;9.692;2022-10-17T04:28:46;0.50;;;0.50;;
13991;SDS011;7070;53.586;9.692;2022-10-17T04:31:13;0.50;;;0.50;;
13991;SDS011;7070;53.586;9.692;2022-10-17T04:33:40;0.60;;;0.60;;
13991;SDS011;7070;53.586;9.692;2022-10-17T04:36:09;0.50;;;0.50;;
13991;SDS011;7070;53.586;9.692;2022-10-17T04:38:37;0.50;;;0.50;;
13991;SDS011;7070;53.586;9.692;2022-10-17T04:41:05;0.50;;;0.50;;
13991;SDS011;7070;53.586;9.692;2022-10-17T04:43:34;0.50;;;0.50;;
13991;SDS011;7070;53.586;9.692;2022-10-17T04:46:03;0.50;;;0.50;;
13991;SDS011;7070;53.586;9.692;2022-10-17T04:48:31;0.50;;;0.50;;
13991;SDS011;7070;53.586;9.692;2022-10-17T04:50:59;0.40;;;0.40;;
13991;SDS011;7070;53.586;9.692;2022-10-17T04:53:28;0.50;;;0.50;;
13991;SDS011;7070;53.586;9.692;2022-10-17T04:55:56;0.40;;;0.40;;
13991;SDS011;7070;53.586;9.692;2022-10-17T04:58:23;0.50;;;0.50;;
13991;SDS011;7070;53.586;9.692;2022-10-17T05:00:50;0.30;;;0.30;;
13991;SDS011;7070;53.586;9.692;2022-10-17T05:03:18;0.50;;;0.50;;
13991;SDS011;7070;53.586;9.692;2022-10-17T05:05:45;0.50;;;0.50;;
13991;SDS011;7070;53.586;9.692;2022-10-17T05:08:12;0.50;;;0.50;;
13991;SDS011;7070;53.586;9.692;2022-10-17T05:10:39;0.40;;;0.40;;
13991;SDS011;7070;53.586;9.692;2022-10-17T05:13:08;0.40;;;0.40;;
13991;SDS011;7070;53.586;9.692;2022-10-17T05:15:35;0.40;;;0.40;;
13991;SDS011;7070;53.586;9.692;2022-10-17T05:18:03;0.50;;;0.50;;
13991;SDS011;7070;53.586;9.692;2022-10-17T05:20:32;0.40;;;0.40;;
13991;SDS011;7070;53.586;9.692;2022-10-17T05:22:59;0.50;;;0.50;;
13991;SDS011;7070;53.586;9.692;2022-10-17T05:25:26;0.50;;;0.50;;
13991;SDS011;7070;53.586;9.692;2022-10-17T05:27:53;0.50;;;0.50;;
13991;SDS011;7070;53.586;9.692;2022-10-17T05:30:20;0.50;;;0.50;;
13991;SDS011;7070;53.586;9.692;2022-10-17T05:32:47;0.57;;;0.57;;
13991;SDS011;7070;53.586;9.692;2022-10-17T05:35:16;0.50;;;0.50;;
13991;SDS011;7070;53.586;9.692;2022-10-17T05:37:44;0.50;;;0.50;;
13991;SDS011;7070;53.586;9.692;2022-10-17T05:40:11;0.40;;;0.40;;
13991;SDS011;7070;53.586;9.692;2022-10-17T05:42:38;0.47;;;0.47;;
13991;SDS011;7070;53.586;9.692;2022-10-17T05:45:05;0.40;;;0.40;;
13991;SDS011;7070;53.586;9.692;2022-10-17T05:47:32;0.40;;;0.40;;
13991;SDS011;7070;53.586;9.692;2022-10-17T05:49:59;0.50;;;0.50;;
13991;SDS011;7070;53.586;9.692;2022-10-17T05:52:26;0.50;;;0.50;;
13991;SDS011;7070;53.586;9.692;2022-10-17T05:54:54;0.50;;;0.50;;
13991;SDS011;7070;53.586;9.692;2022-10-17T05:57:23;0.40;;;0.40;;
13991;SDS011;7070;53.586;9.692;2022-10-17T05:59:50;0.40;;;0.40;;
13991;SDS011;7070;53.586;9.692;2022-10-17T06:02:17;0.50;;;0.50;;
13991;SDS011;7070;53.586;9.692;2022-10-17T06:04:43;0.50;;;0.50;;
13991;SDS011;7070;53.586;9.692;2022-10-17T06:07:12;0.40;;;0.40;;
13991;SDS011;7070;53.586;9.692;2022-10-17T06:09:39;0.40;;;0.40;;
13991;SDS011;7070;53.586;9.692;2022-10-17T06:12:07;0.50;;;0.50;;
13991;SDS011;7070;53.586;9.692;2022-10-17T06:14:34;0.50;;;0.50;;
13991;SDS011;7070;53.586;9.692;2022-10-17T06:17:01;0.50;;;0.50;;
13991;SDS011;7070;53.586;9.692;2022-10-17T06:19:27;0.47;;;0.47;;
13991;SDS011;7070;53.586;9.692;2022-10-17T06:21:54;0.40;;;0.40;;
13991;SDS011;7070;53.586;9.692;2022-10-17T06:24:21;0.50;;;0.50;;
13991;SDS011;7070;53.586;9.692;2022-10-17T06:26:48;0.50;;;0.50;;
13991;SDS011;7070;53.586;9.692;2022-10-17T06:29:16;0.50;;;0.50;;
13991;SDS011;7070;53.586;9.692;2022-10-17T06:31:43;0.43;;;0.43;;
13991;SDS011;7070;53.586;9.692;2022-10-17T06:34:10;0.40;;;0.40;;
13991;SDS011;7070;53.586;9.692;2022-10-17T06:36:36;0.40;;;0.40;;
13991;SDS011;7070;53.586;9.692;2022-10-17T06:39:03;0.50;;;0.50;;
13991;SDS011;7070;53.586;9.692;2022-10-17T06:41:30;0.40;;;0.40;;
13991;SDS011;7070;53.586;9.692;2022-10-17T06:43:57;0.50;;;0.50;;
13991;SDS011;7070;53.586;9.692;2022-10-17T06:46:25;0.50;;;0.50;;
13991;SDS011;7070;53.586;9.692;2022-10-17T06:48:53;0.40;;;0.40;;
13991;SDS011;7070;53.586;9.692;2022-10-17T06:51:20;0.50;;;0.50;;
13991;SDS011;7070;53.586;9.692;2022-10-17T06:53:47;0.50;;;0.50;;
13991;SDS011;7070;53.586;9.692;2022-10-17T06:56:14;0.40;;;0.40;;
13991;SDS011;7070;53.586;9.692;2022-10-17T06:58:41;0.43;;;0.43;;
13991;SDS011;7070;53.586;9.692;2022-10-17T07:01:09;0.50;;;0.50;;
13991;SDS011;7070;53.586;9.692;2022-10-17T07:03:39;0.40;;;0.40;;
13991;SDS011;7070;53.586;9.692;2022-10-17T07:06:07;0.50;;;0.50;;
13991;SDS011;7070;53.586;9.692;2022-10-17T07:08:35;0.40;;;0.40;;
13991;SDS011;7070;53.586;9.692;2022-10-17T07:11:07;0.40;;;0.40;;
13991;SDS011;7070;53.586;9.692;2022-10-17T07:13:35;0.50;;;0.50;;
13991;SDS011;7070;53.586;9.692;2022-10-17T07:16:02;0.50;;;0.50;;
13991;SDS011;7070;53.586;9.692;2022-10-17T07:18:29;0.40;;;0.40;;
13991;SDS011;7070;53.586;9.692;2022-10-17T07:20:57;0.40;;;0.40;;
13991;SDS011;7070;53.586;9.692;2022-10-17T07:23:23;0.50;;;0.50;;
13991;SDS011;7070;53.586;9.692;2022-10-17T07:25:50;0.40;;;0.40;;
13991;SDS011;7070;53.586;9.692;2022-10-17T07:28:17;0.50;;;0.50;;
13991;SDS011;7070;53.586;9.692;2022-10-17T07:30:44;0.50;;;0.50;;
13991;SDS011;7070;53.586;9.692;2022-10-17T07:33:11;0.50;;;0.50;;
13991;SDS011;7070;53.586;9.692;2022-10-17T07:35:38;0.40;;;0.40;;
13991;SDS011;7070;53.586;9.692;2022-10-17T07:38:07;0.40;;;0.40;;
13991;SDS011;7070;53.586;9.692;2022-10-17T07:40:34;0.50;;;0.50;;
13991;SDS011;7070;53.586;9.692;2022-10-17T07:43:01;0.50;;;0.50;;
13991;SDS011;7070;53.586;9.692;2022-10-17T07:45:27;0.40;;;0.40;;
13991;SDS011;7070;53.586;9.692;2022-10-17T07:47:54;0.40;;;0.40;;
13991;SDS011;7070;53.586;9.692;2022-10-17T07:50:22;0.40;;;0.40;;
13991;SDS011;7070;53.586;9.692;2022-10-17T07:52:57;0.40;;;0.40;;
13991;SDS011;7070;53.586;9.692;2022-10-17T07:56:01;0.50;;;0.50;;
13991;SDS011;7070;53.586;9.692;2022-10-17T07:58:29;0.40;;;0.40;;
13991;SDS011;7070;53.586;9.692;2022-10-17T08:00:59;0.50;;;0.50;;
13991;SDS011;7070;53.586;9.692;2022-10-17T08:03:26;0.40;;;0.40;;
13991;SDS011;7070;53.586;9.692;2022-10-17T08:05:55;0.40;;;0.40;;
13991;SDS011;7070;53.586;9.692;2022-10-17T08:08:26;0.40;;;0.40;;
13991;SDS011;7070;53.586;9.692;2022-10-17T08:10:53;0.50;;;0.50;;
13991;SDS011;7070;53.586;9.692;2022-10-17T08:13:22;0.40;;;0.40;;
13991;SDS011;7070;53.586;9.692;2022-10-17T08:15:49;0.40;;;0.40;;
13991;SDS011;7070;53.586;9.692;2022-10-17T08:18:16;0.40;;;0.40;;
13991;SDS011;7070;53.586;9.692;2022-10-17T08:20:43;0.40;;;0.40;;
13991;SDS011;7070;53.586;9.692;2022-10-17T08:23:10;0.30;;;0.30;;
13991;SDS011;7070;53.586;9.692;2022-10-17T08:25:37;0.30;;;0.30;;
13991;SDS011;7070;53.586;9.692;2022-10-17T08:28:04;0.40;;;0.40;;
13991;SDS011;7070;53.586;9.692;2022-10-17T08:30:32;0.40;;;0.40;;
13991;SDS011;7070;53.586;9.692;2022-10-17T08:32:59;0.30;;;0.30;;
13991;SDS011;7070;53.586;9.692;2022-10-17T08:35:26;0.40;;;0.40;;
13991;SDS011;7070;53.586;9.692;2022-10-17T08:37:53;0.40;;;0.40;;
13991;SDS011;7070;53.586;9.692;2022-10-17T08:40:21;0.40;;;0.40;;
13991;SDS011;7070;53.586;9.692;2022-10-17T08:42:59;0.40;;;0.40;;
13991;SDS011;7070;53.586;9.692;2022-10-17T08:45:43;0.40;;;0.40;;
13991;SDS011;7070;53.586;9.692;2022-10-17T08:48:14;0.40;;;0.40;;
13991;SDS011;7070;53.586;9.692;2022-10-17T08:50:44;0.30;;;0.30;;
13991;SDS011;7070;53.586;9.692;2022-10-17T08:53:15;0.30;;;0.30;;
13991;SDS011;7070;53.586;9.692;2022-10-17T08:55:46;0.40;;;0.40;;
13991;SDS011;7070;53.586;9.692;2022-10-17T08:58:16;0.30;;;0.30;;
13991;SDS011;7070;53.586;9.692;2022-10-17T09:00:49;0.40;;;0.40;;
13991;SDS011;7070;53.586;9.692;2022-10-17T09:03:29;0.33;;;0.33;;
13991;SDS011;7070;53.586;9.692;2022-10-17T09:06:13;0.37;;;0.37;;
13991;SDS011;7070;53.586;9.692;2022-10-17T09:08:45;0.30;;;0.30;;
13991;SDS011;7070;53.586;9.692;2022-10-17T09:11:23;0.30;;;0.30;;
13991;SDS011;7070;53.586;9.692;2022-10-17T09:14:24;0.30;;;0.30;;
13991;SDS011;7070;53.586;9.692;2022-10-17T09:17:14;0.30;;;0.30;;
13991;SDS011;7070;53.586;9.692;2022-10-17T09:19:51;0.40;;;0.40;;
13991;SDS011;7070;53.586;9.692;2022-10-17T09:22:27;0.30;;;0.30;;
13991;SDS011;7070;53.586;9.692;2022-10-17T09:25:00;0.30;;;0.30;;
13991;SDS011;7070;53.586;9.692;2022-10-17T09:27:32;0.30;;;0.30;;
13991;SDS011;7070;53.586;9.692;2022-10-17T09:30:12;0.30;;;0.30;;
13991;SDS011;7070;53.586;9.692;2022-10-17T09:32:49;0.30;;;0.30;;
13991;SDS011;7070;53.586;9.692;2022-10-17T09:35:16;0.33;;;0.33;;
13991;SDS011;7070;53.586;9.692;2022-10-17T09:37:44;0.30;;;0.30;;
13991;SDS011;7070;53.586;9.692;2022-10-17T09:40:15;0.30;;;0.30;;
13991;SDS011;7070;53.586;9.692;2022-10-17T09:42:46;0.40;;;0.40;;
13991;SDS011;7070;53.586;9.692;2022-10-17T09:45:15;0.27;;;0.27;;
13991;SDS011;7070;53.586;9.692;2022-10-17T09:47:51;0.37;;;0.37;;
13991;SDS011;7070;53.586;9.692;2022-10-17T09:50:23;0.40;;;0.40;;
13991;SDS011;7070;53.586;9.692;2022-10-17T09:52:52;0.30;;;0.30;;
13991;SDS011;7070;53.586;9.692;2022-10-17T09:55:21;0.30;;;0.30;;
13991;SDS011;7070;53.586;9.692;2022-10-17T09:57:55;0.30;;;0.30;;
13991;SDS011;7070;53.586;9.692;2022-10-17T10:00:24;0.30;;;0.30;;
13991;SDS011;7070;53.586;9.692;2022-10-17T10:05:38;0.20;;;0.20;;
13991;SDS011;7070;53.586;9.692;2022-10-17T10:08:11;0.30;;;0.30;;
13991;SDS011;7070;53.586;9.692;2022-10-17T10:10:40;0.30;;;0.30;;
13991;SDS011;7070;53.586;9.692;2022-10-17T10:13:15;0.30;;;0.30;;
13991;SDS011;7070;53.586;9.692;2022-10-17T10:15:44;0.20;;;0.20;;
13991;SDS011;7070;53.586;9.692;2022-10-17T10:18:26;0.30;;;0.30;;
13991;SDS011;7070;53.586;9.692;2022-10-17T10:21:03;0.20;;;0.20;;
13991;SDS011;7070;53.586;9.692;2022-10-17T10:23:32;0.30;;;0.30;;
13991;SDS011;7070;53.586;9.692;2022-10-17T10:26:16;0.30;;;0.30;;
13991;SDS011;7070;53.586;9.692;2022-10-17T10:28:57;0.20;;;0.20;;
13991;SDS011;7070;53.586;9.692;2022-10-17T10:31:30;0.20;;;0.20;;
13991;SDS011;7070;53.586;9.692;2022-10-17T10:34:02;0.20;;;0.20;;
13991;SDS011;7070;53.586;9.692;2022-10-17T10:36:52;0.30;;;0.30;;
13991;SDS011;7070;53.586;9.692;2022-10-17T10:39:37;0.27;;;0.27;;
13991;SDS011;7070;53.586;9.692;2022-10-17T10:42:07;0.30;;;0.30;;
13991;SDS011;7070;53.586;9.692;2022-10-17T10:44:44;0.20;;;0.20;;
13991;SDS011;7070;53.586;9.692;2022-10-17T10:47:16;0.20;;;0.20;;
13991;SDS011;7070;53.586;9.692;2022-10-17T10:49:47;0.30;;;0.30;;
13991;SDS011;7070;53.586;9.692;2022-10-17T10:52:23;0.23;;;0.23;;
13991;SDS011;7070;53.586;9.692;2022-10-17T10:54:58;0.30;;;0.30;;
13991;SDS011;7070;53.586;9.692;2022-10-17T10:57:35;0.20;;;0.20;;
13991;SDS011;7070;53.586;9.692;2022-10-17T11:00:04;0.20;;;0.20;;
13991;SDS011;7070;53.586;9.692;2022-10-17T11:02:39;0.30;;;0.30;;
13991;SDS011;7070;53.586;9.692;2022-10-17T11:05:15;0.30;;;0.30;;
13991;SDS011;7070;53.586;9.692;2022-10-17T11:07:49;0.30;;;0.30;;
13991;SDS011;7070;53.586;9.692;2022-10-17T11:10:22;0.20;;;0.20;;
13991;SDS011;7070;53.586;9.692;2022-10-17T11:12:55;0.30;;;0.30;;
13991;SDS011;7070;53.586;9.692;2022-10-17T11:15:26;0.30;;;0.30;;
13991;SDS011;7070;53.586;9.692;2022-10-17T11:18:01;0.20;;;0.20;;
13991;SDS011;7070;53.586;9.692;2022-10-17T11:20:35;0.30;;;0.30;;
13991;SDS011;7070;53.586;9.692;2022-10-17T11:23:13;0.23;;;0.23;;
13991;SDS011;7070;53.586;9.692;2022-10-17T11:25:45;0.20;;;0.20;;
13991;SDS011;7070;53.586;9.692;2022-10-17T11:28:15;0.20;;;0.20;;
13991;SDS011;7070;53.586;9.692;2022-10-17T11:30:45;0.30;;;0.30;;
13991;SDS011;7070;53.586;9.692;2022-10-17T11:33:17;0.20;;;0.20;;
13991;SDS011;7070;53.586;9.692;2022-10-17T11:35:54;0.27;;;0.27;;
13991;SDS011;7070;53.586;9.692;2022-10-17T11:38:29;0.20;;;0.20;;
13991;SDS011;7070;53.586;9.692;2022-10-17T11:41:03;0.20;;;0.20;;
13991;SDS011;7070;53.586;9.692;2022-10-17T11:43:32;0.20;;;0.20;;
13991;SDS011;7070;53.586;9.692;2022-10-17T11:46:04;0.30;;;0.30;;
13991;SDS011;7070;53.586;9.692;2022-10-17T11:48:38;0.20;;;0.20;;
13991;SDS011;7070;53.586;9.692;2022-10-17T11:51:10;0.30;;;0.30;;
13991;SDS011;7070;53.586;9.692;2022-10-17T11:53:43;0.20;;;0.20;;
13991;SDS011;7070;53.586;9.692;2022-10-17T11:56:13;0.20;;;0.20;;
13991;SDS011;7070;53.586;9.692;2022-10-17T11:58:48;0.27;;;0.27;;
13991;SDS011;7070;53.586;9.692;2022-10-17T12:01:22;0.30;;;0.30;;
13991;SDS011;7070;53.586;9.692;2022-10-17T12:04:03;0.27;;;0.27;;
13991;SDS011;7070;53.586;9.692;2022-10-17T12:06:44;0.20;;;0.20;;
13991;SDS011;7070;53.586;9.692;2022-10-17T12:09:30;0.30;;;0.30;;
13991;SDS011;7070;53.586;9.692;2022-10-17T12:12:05;0.30;;;0.30;;
13991;SDS011;7070;53.586;9.692;2022-10-17T12:14:41;0.30;;;0.30;;
13991;SDS011;7070;53.586;9.692;2022-10-17T12:17:21;0.27;;;0.27;;
13991;SDS011;7070;53.586;9.692;2022-10-17T12:22:58;0.20;;;0.20;;
13991;SDS011;7070;53.586;9.692;2022-10-17T12:25:31;0.20;;;0.20;;
13991;SDS011;7070;53.586;9.692;2022-10-17T12:28:09;0.30;;;0.30;;
13991;SDS011;7070;53.586;9.692;2022-10-17T12:30:48;0.20;;;0.20;;
13991;SDS011;7070;53.586;9.692;2022-10-17T12:33:17;0.23;;;0.23;;
13991;SDS011;7070;53.586;9.692;2022-10-17T12:35:47;0.27;;;0.27;;
13991;SDS011;7070;53.586;9.692;2022-10-17T12:38:20;0.23;;;0.23;;
13991;SDS011;7070;53.586;9.692;2022-10-17T12:40:52;0.30;;;0.30;;
13991;SDS011;7070;53.586;9.692;2022-10-17T12:46:41;0.30;;;0.30;;
13991;SDS011;7070;53.586;9.692;2022-10-17T12:52:14;0.30;;;0.30;;
13991;SDS011;7070;53.586;9.692;2022-10-17T12:54:49;0.30;;;0.30;;
13991;SDS011;7070;53.586;9.692;2022-10-17T12:57:24;0.30;;;0.30;;
13991;SDS011;7070;53.586;9.692;2022-10-17T12:59:56;0.30;;;0.30;;
13991;SDS011;7070;53.586;9.692;2022-10-17T13:02:23;0.30;;;0.30;;
13991;SDS011;7070;53.586;9.692;2022-10-17T13:04:54;0.30;;;0.30;;
13991;SDS011;7070;53.586;9.692;2022-10-17T13:07:28;0.40;;;0.40;;
13991;SDS011;7070;53.586;9.692;2022-10-17T13:09:56;0.30;;;0.30;;
13991;SDS011;7070;53.586;9.692;2022-10-17T13:12:28;0.30;;;0.30;;
13991;SDS011;7070;53.586;9.692;2022-10-17T13:14:57;0.30;;;0.30;;
13991;SDS011;7070;53.586;9.692;2022-10-17T13:17:26;0.30;;;0.30;;
13991;SDS011;7070;53.586;9.692;2022-10-17T13:19:55;0.30;;;0.30;;
13991;SDS011;7070;53.586;9.692;2022-10-17T13:22:23;0.30;;;0.30;;
13991;SDS011;7070;53.586;9.692;2022-10-17T13:24:52;0.40;;;0.40;;
13991;SDS011;7070;53.586;9.692;2022-10-17T13:27:32;0.30;;;0.30;;
13991;SDS011;7070;53.586;9.692;2022-10-17T13:30:01;0.30;;;0.30;;
13991;SDS011;7070;53.586;9.692;2022-10-17T13:32:46;0.30;;;0.30;;
13991;SDS011;7070;53.586;9.692;2022-10-17T13:35:13;0.30;;;0.30;;
13991;SDS011;7070;53.586;9.692;2022-10-17T13:37:42;0.30;;;0.30;;
13991;SDS011;7070;53.586;9.692;2022-10-17T13:40:14;0.40;;;0.40;;
13991;SDS011;7070;53.586;9.692;2022-10-17T13:42:44;0.30;;;0.30;;
13991;SDS011;7070;53.586;9.692;2022-10-17T13:45:15;0.20;;;0.20;;
13991;SDS011;7070;53.586;9.692;2022-10-17T13:47:45;0.40;;;0.40;;
13991;SDS011;7070;53.586;9.692;2022-10-17T13:53:11;0.30;;;0.30;;
13991;SDS011;7070;53.586;9.692;2022-10-17T13:55:52;0.30;;;0.30;;
13991;SDS011;7070;53.586;9.692;2022-10-17T13:58:22;0.30;;;0.30;;
13991;SDS011;7070;53.586;9.692;2022-10-17T14:00:49;0.30;;;0.30;;
13991;SDS011;7070;53.586;9.692;2022-10-17T14:03:18;0.30;;;0.30;;
13991;SDS011;7070;53.586;9.692;2022-10-17T14:08:45;0.30;;;0.30;;
13991;SDS011;7070;53.586;9.692;2022-10-17T14:11:17;0.30;;;0.30;;
13991;SDS011;7070;53.586;9.692;2022-10-17T14:13:50;0.30;;;0.30;;
13991;SDS011;7070;53.586;9.692;2022-10-17T14:16:19;0.20;;;0.20;;
13991;SDS011;7070;53.586;9.692;2022-10-17T14:18:47;0.30;;;0.30;;
13991;SDS011;7070;53.586;9.692;2022-10-17T14:21:19;0.20;;;0.20;;
13991;SDS011;7070;53.586;9.692;2022-10-17T14:23:48;0.30;;;0.30;;
13991;SDS011;7070;53.586;9.692;2022-10-17T14:26:16;0.30;;;0.30;;
13991;SDS011;7070;53.586;9.692;2022-10-17T14:28:46;0.30;;;0.30;;
13991;SDS011;7070;53.586;9.692;2022-10-17T14:31:23;0.30;;;0.30;;
13991;SDS011;7070;53.586;9.692;2022-10-17T14:33:54;0.30;;;0.30;;
13991;SDS011;7070;53.586;9.692;2022-10-17T14:36:29;0.40;;;0.40;;
13991;SDS011;7070;53.586;9.692;2022-10-17T14:38:58;0.30;;;0.30;;
13991;SDS011;7070;53.586;9.692;2022-10-17T14:41:26;0.23;;;0.23;;
13991;SDS011;7070;53.586;9.692;2022-10-17T14:43:56;0.30;;;0.30;;
13991;SDS011;7070;53.586;9.692;2022-10-17T14:46:27;0.30;;;0.30;;
13991;SDS011;7070;53.586;9.692;2022-10-17T14:48:56;0.30;;;0.30;;
13991;SDS011;7070;53.586;9.692;2022-10-17T14:51:27;0.30;;;0.30;;
13991;SDS011;7070;53.586;9.692;2022-10-17T14:53:58;0.30;;;0.30;;
13991;SDS011;7070;53.586;9.692;2022-10-17T14:56:33;0.30;;;0.30;;
13991;SDS011;7070;53.586;9.692;2022-10-17T14:59:02;0.30;;;0.30;;
13991;SDS011;7070;53.586;9.692;2022-10-17T15:01:31;0.30;;;0.30;;
13991;SDS011;7070;53.586;9.692;2022-10-17T15:03:58;0.30;;;0.30;;
13991;SDS011;7070;53.586;9.692;2022-10-17T15:06:26;0.30;;;0.30;;
13991;SDS011;7070;53.586;9.692;2022-10-17T15:08:54;0.40;;;0.40;;
13991;SDS011;7070;53.586;9.692;2022-10-17T15:11:20;0.30;;;0.30;;
13991;SDS011;7070;53.586;9.692;2022-10-17T15:13:47;0.33;;;0.33;;
13991;SDS011;7070;53.586;9.692;2022-10-17T15:16:16;0.30;;;0.30;;
13991;SDS011;7070;53.586;9.692;2022-10-17T15:18:46;0.30;;;0.30;;
13991;SDS011;7070;53.586;9.692;2022-10-17T15:21:13;0.40;;;0.40;;
13991;SDS011;7070;53.586;9.692;2022-10-17T15:23:41;0.30;;;0.30;;
13991;SDS011;7070;53.586;9.692;2022-10-17T15:26:12;0.37;;;0.37;;
13991;SDS011;7070;53.586;9.692;2022-10-17T15:28:40;0.30;;;0.30;;
13991;SDS011;7070;53.586;9.692;2022-10-17T15:31:08;0.30;;;0.30;;
13991;SDS011;7070;53.586;9.692;2022-10-17T15:33:37;0.40;;;0.40;;
13991;SDS011;7070;53.586;9.692;2022-10-17T15:36:13;0.33;;;0.33;;
13991;SDS011;7070;53.586;9.692;2022-10-17T15:38:50;0.30;;;0.30;;
13991;SDS011;7070;53.586;9.692;2022-10-17T15:41:19;0.30;;;0.30;;